Time;durP1;ratioP1;P1;durP2;ratioP2;P2;SDS_P1;SDS_P2;PMS_P1;PMS_P2;Temp;Humidity;BMP_temperature;BMP_pressure;BME280_temperature;BME280_humidity;BME280_pressure;Samples;Min_cycle;Max_cycle;Signal;HPM_P1;HPM_P2
2023/06/05 00:00:17;;;;;;;21.88;8.93;;;;;;;27.56;58.49;97910.44;4950129;28;20047;-61
2023/06/05 00:02:47;;;;;;;17.25;9.13;;;;;;;27.52;58.24;97912.19;4948480;28;20067;-61
2023/06/05 00:05:18;;;;;;;20.40;8.27;;;;;;;27.56;57.84;97915.88;4953341;28;20736;-61
2023/06/05 00:07:47;;;;;;;22.05;8.95;;;;;;;27.61;59.34;97923.06;4948416;28;20059;-62
2023/06/05 00:10:17;;;;;;;21.40;8.75;;;;;;;27.60;58.65;97914.09;4947352;28;20054;-62
2023/06/05 00:12:47;;;;;;;22.25;8.77;;;;;;;27.65;58.69;97924.81;4948117;28;20136;-60
2023/06/05 00:15:16;;;;;;;18.95;9.05;;;;;;;27.62;57.91;97917.28;4949382;28;20051;-62
2023/06/05 00:17:47;;;;;;;18.95;7.85;;;;;;;27.62;57.74;97928.16;4961116;28;20046;-61
2023/06/05 00:20:18;;;;;;;20.40;8.85;;;;;;;27.62;57.99;97930.88;4955563;28;20138;-61
2023/06/05 00:22:48;;;;;;;18.88;9.30;;;;;;;27.64;58.35;97925.94;4952662;28;20053;-62
2023/06/05 00:25:18;;;;;;;27.70;8.93;;;;;;;27.69;58.43;97927.69;4956398;28;20105;-63
2023/06/05 00:27:47;;;;;;;19.50;8.88;;;;;;;27.63;58.99;97932.50;4960334;28;20504;-62
2023/06/05 00:30:16;;;;;;;22.88;8.65;;;;;;;27.64;58.87;97931.38;4946074;28;20057;-60
2023/06/05 00:32:46;;;;;;;19.88;8.32;;;;;;;27.70;58.77;97946.38;4955270;28;20063;-60
2023/06/05 00:35:15;;;;;;;20.08;8.20;;;;;;;27.65;57.91;97945.78;4954843;28;20130;-60
2023/06/05 00:37:46;;;;;;;18.75;8.80;;;;;;;27.64;59.07;97944.16;4956913;28;20564;-62
2023/06/05 00:40:16;;;;;;;26.10;9.10;;;;;;;27.65;58.34;97948.50;4955126;28;20055;-60
2023/06/05 00:42:45;;;;;;;25.48;9.50;;;;;;;27.70;58.65;97948.34;4965974;28;20109;-60
2023/06/05 00:45:14;;;;;;;18.98;8.90;;;;;;;27.76;59.20;97946.22;4953441;28;20058;-62
2023/06/05 00:47:44;;;;;;;22.75;9.30;;;;;;;27.74;58.96;97956.66;4955994;28;20047;-61
2023/06/05 00:50:15;;;;;;;28.25;10.05;;;;;;;27.73;58.75;97952.31;4958560;28;20490;-62
2023/06/05 00:52:46;;;;;;;19.48;10.15;;;;;;;27.76;58.46;97955.19;4968996;28;20072;-60
2023/06/05 00:55:16;;;;;;;19.85;9.63;;;;;;;27.84;58.69;97954.38;4954472;28;20038;-62
2023/06/05 00:57:45;;;;;;;28.02;9.90;;;;;;;27.90;59.46;97957.75;4952703;28;20400;-60
2023/06/05 01:00:15;;;;;;;20.80;9.82;;;;;;;27.95;58.37;97963.00;4958066;28;20047;-61
2023/06/05 01:02:47;;;;;;;27.83;9.88;;;;;;;27.99;58.51;97962.03;4952656;28;20050;-61
2023/06/05 01:05:17;;;;;;;19.35;11.57;;;;;;;27.96;58.30;97978.22;4956093;28;20054;-63
2023/06/05 01:07:50;;;;;;;28.33;13.27;;;;;;;27.97;57.95;97963.50;4955908;28;20063;-61
2023/06/05 01:10:19;;;;;;;32.05;11.88;;;;;;;27.93;58.43;97973.41;4953097;28;20054;-60
2023/06/05 01:13:01;;;;;;;25.58;12.63;;;;;;;27.90;58.41;97984.97;4953714;28;20059;-60
2023/06/05 01:15:33;;;;;;;19.83;11.10;;;;;;;27.91;58.27;97981.94;4946219;28;20054;-60
2023/06/05 01:18:04;;;;;;;21.95;9.90;;;;;;;27.98;60.04;97970.53;4946107;28;20061;-60
2023/06/05 01:20:41;;;;;;;31.63;11.30;;;;;;;27.91;60.03;97981.13;4946285;28;20075;-60
2023/06/05 01:23:10;;;;;;;28.17;11.85;;;;;;;27.95;59.19;97990.25;4945411;28;20714;-61
2023/06/05 01:25:41;;;;;;;27.95;13.18;;;;;;;28.01;59.49;97984.31;4935867;29;20053;-60
2023/06/05 01:28:18;;;;;;;28.55;12.93;;;;;;;28.03;58.78;97981.25;4949204;28;20039;-60
2023/06/05 01:31:00;;;;;;;18.52;10.05;;;;;;;28.04;59.47;97991.03;4945360;28;20050;-63
2023/06/05 01:33:49;;;;;;;25.35;10.40;;;;;;;28.12;60.04;97984.78;4951381;28;20062;-61
2023/06/05 01:36:21;;;;;;;33.65;12.00;;;;;;;28.25;59.48;97985.72;4944463;28;20054;-61
2023/06/05 01:38:54;;;;;;;23.73;11.93;;;;;;;28.37;59.37;98002.19;4962148;28;20078;-59
2023/06/05 01:41:26;;;;;;;20.33;10.57;;;;;;;28.41;58.47;98005.88;4947624;28;20077;-61
2023/06/05 01:43:56;;;;;;;19.35;12.80;;;;;;;28.63;58.47;98013.81;4939956;28;20480;-60
2023/06/05 01:46:26;;;;;;;23.60;12.27;;;;;;;28.60;57.58;98008.97;4946955;28;20122;-60
2023/06/05 01:48:56;;;;;;;22.50;11.68;;;;;;;28.77;56.37;98006.22;4949003;28;20047;-60
2023/06/05 01:51:26;;;;;;;27.52;12.15;;;;;;;29.03;56.22;98006.09;4961128;28;20047;-59
2023/06/05 01:53:55;;;;;;;27.10;13.00;;;;;;;29.36;55.42;98009.75;4959771;28;20062;-59
2023/06/05 01:56:25;;;;;;;23.00;13.05;;;;;;;29.72;54.56;98005.63;4956926;28;20047;-61
2023/06/05 01:58:55;;;;;;;24.67;13.25;;;;;;;29.80;54.78;98005.56;4958419;28;20494;-61
2023/06/05 02:01:28;;;;;;;23.75;12.88;;;;;;;30.07;53.51;98006.94;4939817;28;20126;-61
2023/06/05 02:03:57;;;;;;;26.63;12.90;;;;;;;30.39;53.54;98004.50;4960460;28;20097;-60
2023/06/05 02:06:28;;;;;;;28.67;12.77;;;;;;;30.54;53.08;98009.34;4955256;28;20058;-61
2023/06/05 02:08:57;;;;;;;30.77;12.27;;;;;;;30.71;52.64;98017.34;4958039;28;20058;-61
2023/06/05 02:11:28;;;;;;;23.08;11.30;;;;;;;30.84;51.54;98024.44;4957555;28;20491;-60
2023/06/05 02:13:59;;;;;;;27.95;11.98;;;;;;;31.09;51.54;98023.31;4942129;28;20050;-59
2023/06/05 02:16:29;;;;;;;20.70;12.27;;;;;;;31.31;50.56;98022.03;4956082;28;20101;-60
2023/06/05 02:19:03;;;;;;;24.45;10.98;;;;;;;31.41;50.30;98031.72;4957996;28;20450;-61
2023/06/05 02:21:33;;;;;;;31.13;12.50;;;;;;;31.76;49.58;98029.25;4950805;28;20074;-63
2023/06/05 02:24:03;;;;;;;37.85;14.07;;;;;;;31.93;49.58;98037.19;4965771;28;20047;-62
2023/06/05 02:26:33;;;;;;;22.25;11.40;;;;;;;32.16;47.72;98029.22;4957637;28;20046;-62
2023/06/05 02:29:03;;;;;;;28.90;11.60;;;;;;;32.54;47.08;98029.47;4972958;28;20038;-62
2023/06/05 02:31:33;;;;;;;17.48;10.20;;;;;;;32.80;46.65;98027.00;4966856;28;20476;-61
2023/06/05 02:34:03;;;;;;;17.77;10.13;;;;;;;33.03;45.79;98029.13;4955045;28;20150;-62
2023/06/05 02:36:35;;;;;;;20.80;9.65;;;;;;;33.15;44.70;98026.31;4956504;28;20047;-60
2023/06/05 02:39:04;;;;;;;28.20;10.05;;;;;;;33.25;44.59;98021.06;4953860;28;20543;-61
2023/06/05 02:41:34;;;;;;;17.77;10.18;;;;;;;33.47;43.76;98025.06;4958298;28;20047;-61
2023/06/05 02:44:04;;;;;;;25.27;9.55;;;;;;;33.64;44.60;98023.84;4966434;28;20141;-61
2023/06/05 02:46:34;;;;;;;27.05;11.40;;;;;;;33.58;43.02;98039.06;4957374;28;20066;-61
2023/06/05 02:49:03;;;;;;;24.08;10.40;;;;;;;33.80;43.89;98036.44;4956982;28;20043;-61
2023/06/05 02:51:33;;;;;;;28.40;10.02;;;;;;;33.70;43.07;98038.94;4953096;28;20074;-61
2023/06/05 02:54:04;;;;;;;30.58;10.85;;;;;;;33.95;44.67;98042.19;4952026;28;20043;-62
2023/06/05 02:56:35;;;;;;;30.55;10.23;;;;;;;34.15;44.88;98041.84;4970460;28;20082;-61
2023/06/05 02:59:05;;;;;;;25.02;10.55;;;;;;;34.16;42.86;98043.47;4960616;28;20670;-61
2023/06/05 03:01:35;;;;;;;28.52;11.05;;;;;;;34.05;43.51;98041.63;4969793;28;20133;-61
2023/06/05 03:04:08;;;;;;;24.42;9.93;;;;;;;33.86;42.99;98053.41;4958489;28;20137;-61
2023/06/05 03:06:43;;;;;;;21.33;9.63;;;;;;;33.87;43.49;98049.50;4959292;28;20050;-61
2023/06/05 03:09:13;;;;;;;21.95;10.10;;;;;;;33.84;43.38;98052.97;4959255;28;20050;-61
2023/06/05 03:11:43;;;;;;;24.08;10.73;;;;;;;33.92;44.41;98054.72;4955985;28;20054;-61
2023/06/05 03:14:12;;;;;;;25.83;11.05;;;;;;;34.13;43.72;98049.63;4958245;28;20054;-62
2023/06/05 03:16:43;;;;;;;40.08;10.68;;;;;;;34.27;45.33;98051.91;4940253;28;20039;-62
2023/06/05 03:19:15;;;;;;;27.92;8.93;;;;;;;34.30;43.15;98053.91;4959319;28;20066;-61
2023/06/05 03:21:47;;;;;;;27.65;9.82;;;;;;;34.12;41.91;98052.78;4961105;28;20066;-61
2023/06/05 03:24:17;;;;;;;24.23;9.38;;;;;;;33.90;44.09;98062.53;4959918;28;20383;-61
2023/06/05 03:26:54;;;;;;;23.15;9.40;;;;;;;34.11;43.32;98046.47;4943370;28;20050;-61
2023/06/05 03:29:24;;;;;;;27.75;8.90;;;;;;;34.22;43.62;98052.19;4958258;28;20057;-62
2023/06/05 03:31:53;;;;;;;21.80;8.90;;;;;;;34.15;42.35;98050.09;4952746;28;20121;-63
2023/06/05 03:34:25;;;;;;;25.67;8.60;;;;;;;33.93;42.99;98055.50;4975167;28;20085;-61
2023/06/05 03:36:58;;;;;;;28.25;8.30;;;;;;;34.13;42.83;98048.84;4974975;28;20042;-62
2023/06/05 03:39:28;;;;;;;25.85;7.90;;;;;;;34.31;41.21;98050.00;4959279;28;20055;-62
2023/06/05 03:42:00;;;;;;;24.90;8.27;;;;;;;33.81;41.85;98054.47;4961537;28;20054;-61
2023/06/05 03:44:31;;;;;;;26.02;8.88;;;;;;;33.71;42.12;98054.28;4944628;28;20053;-62
2023/06/05 03:47:01;;;;;;;20.52;8.40;;;;;;;33.95;42.20;98053.97;4964417;28;20470;-61
2023/06/05 03:49:31;;;;;;;30.70;8.82;;;;;;;34.10;41.66;98050.38;4961872;28;20047;-63
2023/06/05 03:52:03;;;;;;;22.90;8.57;;;;;;;34.79;42.53;98051.28;4956518;28;20051;-62
2023/06/05 03:54:32;;;;;;;21.67;8.15;;;;;;;34.98;39.51;98047.66;4948375;28;20047;-65
2023/06/05 03:57:03;;;;;;;20.15;7.40;;;;;;;35.19;41.46;98050.78;4938431;28;20059;-64
2023/06/05 03:59:33;;;;;;;20.92;7.80;;;;;;;34.81;39.70;98048.97;4957364;28;20077;-64
2023/06/05 04:02:04;;;;;;;20.70;7.60;;;;;;;34.76;39.83;98059.50;4949093;28;20856;-63
2023/06/05 04:04:33;;;;;;;20.08;7.30;;;;;;;34.57;39.39;98057.56;4952836;28;20051;-67
2023/06/05 04:07:03;;;;;;;17.35;7.53;;;;;;;34.97;39.58;98052.38;4956896;28;20136;-67
2023/06/05 04:09:32;;;;;;;17.83;7.13;;;;;;;34.82;39.04;98047.03;4948762;28;20051;-66
2023/06/05 04:12:03;;;;;;;17.98;7.15;;;;;;;34.82;39.06;98047.03;4939445;28;20491;-67
2023/06/05 04:14:33;;;;;;;18.38;7.07;;;;;;;35.44;38.94;98051.16;4948461;28;20055;-67
2023/06/05 04:17:02;;;;;;;23.45;7.82;;;;;;;35.06;39.87;98052.13;4956860;28;20047;-65
2023/06/05 04:19:32;;;;;;;15.55;6.85;;;;;;;35.74;39.06;98049.25;4948851;28;20439;-67
2023/06/05 04:22:01;;;;;;;22.50;7.85;;;;;;;35.83;38.91;98046.22;4960831;28;20062;-65
2023/06/05 04:24:33;;;;;;;16.10;7.47;;;;;;;36.00;38.73;98045.63;4953123;28;20046;-65
2023/06/05 04:27:03;;;;;;;20.58;7.35;;;;;;;36.30;37.12;98051.91;4957882;28;20050;-67
2023/06/05 04:29:32;;;;;;;24.40;7.85;;;;;;;36.12;36.38;98053.66;4965333;28;20117;-68
2023/06/05 04:32:02;;;;;;;20.92;8.02;;;;;;;36.58;36.96;98053.38;4951903;28;20371;-66
2023/06/05 04:34:32;;;;;;;22.42;7.68;;;;;;;36.83;37.78;98052.44;4948857;28;20110;-67
2023/06/05 04:37:03;;;;;;;20.00;6.97;;;;;;;36.99;35.19;98052.19;4955343;28;20448;-68
2023/06/05 04:39:33;;;;;;;20.67;6.88;;;;;;;37.16;36.07;98054.34;4954179;28;20158;-69
2023/06/05 04:42:02;;;;;;;16.65;6.60;;;;;;;37.00;36.70;98048.25;4938913;28;20372;-66
2023/06/05 04:44:53;;;;;;;;;;;;;;;37.35;37.97;98047.75;4947312;28;20051;-65
2023/06/05 04:47:23;;;;;;;13.98;5.90;;;;;;;36.73;35.39;98052.38;4961172;28;19986;-64
2023/06/05 04:49:54;;;;;;;16.08;6.95;;;;;;;36.17;36.04;98058.84;4952828;28;20078;-64
2023/06/05 04:52:24;;;;;;;26.77;7.28;;;;;;;35.99;36.65;98055.06;4959933;28;20112;-65
2023/06/05 04:54:54;;;;;;;21.48;7.28;;;;;;;36.72;36.74;98056.31;4951637;28;20043;-65
2023/06/05 04:57:25;;;;;;;20.85;6.50;;;;;;;36.81;35.47;98054.81;4952338;28;20073;-64
2023/06/05 05:00:00;;;;;;;18.63;7.20;;;;;;;36.66;34.43;98055.84;4936547;28;20050;-63
2023/06/05 05:02:29;;;;;;;24.35;6.32;;;;;;;36.28;35.56;98057.03;4947007;28;20178;-65
2023/06/05 05:04:59;;;;;;;23.55;6.53;;;;;;;36.71;35.21;98052.75;4959125;28;20050;-63
2023/06/05 05:07:28;;;;;;;14.07;5.70;;;;;;;37.08;35.67;98060.19;4950705;28;20086;-63
2023/06/05 05:10:01;;;;;;;17.73;5.03;;;;;;;37.21;34.39;98050.41;4952987;28;20050;-64
2023/06/05 05:12:32;;;;;;;20.67;5.35;;;;;;;37.39;35.29;98056.84;4952168;28;20448;-66
2023/06/05 05:15:04;;;;;;;15.20;5.63;;;;;;;36.97;35.09;98057.31;4950239;28;20039;-65
2023/06/05 05:17:34;;;;;;;14.93;5.85;;;;;;;36.74;34.83;98062.22;4955866;28;20526;-64
2023/06/05 05:20:06;;;;;;;21.70;6.00;;;;;;;36.92;35.28;98060.41;4954441;28;20051;-64
2023/06/05 05:22:39;;;;;;;11.85;5.80;;;;;;;37.36;36.47;98063.13;4953721;28;20137;-64
2023/06/05 05:25:09;;;;;;;22.88;6.72;;;;;;;36.51;34.88;98061.59;4946633;28;20109;-63
2023/06/05 05:27:39;;;;;;;20.25;6.65;;;;;;;36.47;35.83;98056.00;4947211;28;20574;-64
2023/06/05 05:30:09;;;;;;;12.48;6.00;;;;;;;36.77;35.14;98055.97;4946556;28;20051;-63
2023/06/05 05:32:40;;;;;;;15.65;6.15;;;;;;;36.74;33.61;98049.22;4957831;28;20522;-63
2023/06/05 05:35:12;;;;;;;14.25;5.18;;;;;;;37.53;35.97;98047.91;4946938;28;20074;-66
2023/06/05 05:37:41;;;;;;;20.58;5.80;;;;;;;37.22;35.71;98050.00;4941720;28;20156;-65
2023/06/05 05:40:12;;;;;;;14.93;5.30;;;;;;;37.35;34.87;98053.28;4955775;28;20047;-65
2023/06/05 05:42:42;;;;;;;9.15;4.80;;;;;;;37.43;36.39;98051.34;4942008;28;20062;-63
2023/06/05 05:45:11;;;;;;;13.00;5.72;;;;;;;37.24;36.71;98044.91;4948509;28;20047;-65
2023/06/05 05:47:41;;;;;;;12.32;5.28;;;;;;;37.16;35.69;98056.28;4959012;28;20078;-63
2023/06/05 05:50:11;;;;;;;15.45;5.70;;;;;;;36.95;32.45;98056.09;4941569;28;20039;-63
2023/06/05 05:52:42;;;;;;;21.27;5.68;;;;;;;37.14;34.06;98059.44;4957803;28;20435;-61
2023/06/05 05:55:12;;;;;;;17.50;5.43;;;;;;;37.51;36.15;98048.25;4948522;28;20053;-63
2023/06/05 05:57:42;;;;;;;11.13;5.22;;;;;;;37.29;33.64;98049.28;4956906;28;20057;-62
2023/06/05 06:00:12;;;;;;;20.45;4.97;;;;;;;37.21;32.80;98061.47;4965750;28;20057;-62
2023/06/05 06:02:42;;;;;;;20.05;5.25;;;;;;;37.12;32.04;98059.03;4965322;28;20137;-61
2023/06/05 06:05:12;;;;;;;16.25;5.40;;;;;;;36.98;31.44;98053.38;4963829;28;20442;-63
2023/06/05 06:07:42;;;;;;;9.93;5.00;;;;;;;37.22;30.89;98049.25;4964835;28;20055;-62
2023/06/05 06:10:16;;;;;;;10.00;4.63;;;;;;;36.96;33.09;98043.91;4963956;28;20130;-62
2023/06/05 06:12:46;;;;;;;9.05;4.43;;;;;;;37.32;32.61;98037.47;4955591;28;20081;-66
2023/06/05 06:15:15;;;;;;;15.98;4.47;;;;;;;37.36;33.38;98041.03;4973801;28;20129;-66
2023/06/05 06:17:45;;;;;;;16.95;5.00;;;;;;;37.58;32.04;98040.00;4971300;28;20102;-63
2023/06/05 06:20:15;;;;;;;16.63;5.20;;;;;;;37.38;32.76;98041.44;4960258;28;20066;-64
2023/06/05 06:22:45;;;;;;;12.63;5.50;;;;;;;37.34;34.33;98035.91;4975067;28;20153;-68
2023/06/05 06:25:17;;;;;;;10.60;4.60;;;;;;;37.24;34.01;98041.34;4974556;28;20101;-65
2023/06/05 06:27:48;;;;;;;16.95;4.57;;;;;;;37.40;35.58;98032.78;4976210;28;20093;-65
2023/06/05 06:30:18;;;;;;;13.50;4.72;;;;;;;37.21;34.78;98025.56;4977900;28;20074;-66
2023/06/05 06:32:48;;;;;;;10.13;4.90;;;;;;;37.42;33.98;98030.41;4974710;28;20364;-65
2023/06/05 06:35:17;;;;;;;16.52;5.45;;;;;;;37.38;33.92;98029.59;4974310;28;20042;-67
2023/06/05 06:37:49;;;;;;;11.10;4.60;;;;;;;37.28;32.87;98020.06;4977518;28;20046;-64
2023/06/05 06:40:18;;;;;;;11.73;5.05;;;;;;;37.28;33.75;98022.81;4967834;28;20057;-68
2023/06/05 06:42:50;;;;;;;12.52;4.82;;;;;;;37.17;33.64;98028.31;4958146;28;20047;-67
2023/06/05 06:45:43;;;;;;;9.68;4.60;;;;;;;37.14;31.60;98009.72;4958252;28;20043;-66
2023/06/05 06:48:13;;;;;;;12.40;4.43;;;;;;;37.32;33.15;98018.91;4969913;28;20047;-67
2023/06/05 06:50:43;;;;;;;10.88;4.80;;;;;;;37.41;32.65;98017.78;4938685;28;20053;-65
2023/06/05 06:53:12;;;;;;;10.25;4.45;;;;;;;37.21;30.83;98007.03;4966363;28;20058;-65
2023/06/05 06:55:42;;;;;;;15.50;5.20;;;;;;;37.27;30.56;98012.94;4967306;28;20058;-67
2023/06/05 06:58:12;;;;;;;11.18;4.32;;;;;;;37.04;29.91;97999.38;4972964;28;20493;-68
2023/06/05 07:00:42;;;;;;;9.68;4.60;;;;;;;37.29;33.70;98005.88;4971928;28;20057;-67
2023/06/05 07:03:12;;;;;;;10.55;3.95;;;;;;;37.59;31.41;98002.09;4971064;28;20046;-67
2023/06/05 07:05:41;;;;;;;9.80;4.07;;;;;;;37.52;33.37;97996.56;4966098;28;20061;-68
2023/06/05 07:08:10;;;;;;;11.73;4.85;;;;;;;37.47;32.39;97997.69;4965602;28;20050;-62
2023/06/05 07:10:42;;;;;;;11.60;4.10;;;;;;;37.23;31.48;97993.59;4964182;28;20138;-64
2023/06/05 07:13:11;;;;;;;10.80;3.95;;;;;;;37.59;31.66;97989.09;4965313;28;20037;-61
2023/06/05 07:15:41;;;;;;;13.50;5.50;;;;;;;37.53;31.40;97982.34;4965491;28;20534;-66
2023/06/05 07:18:10;;;;;;;8.45;4.28;;;;;;;37.53;30.40;97979.56;4968984;28;20046;-67
2023/06/05 07:20:40;;;;;;;14.05;3.92;;;;;;;37.14;29.66;97979.34;4959264;28;20046;-68
2023/06/05 07:23:10;;;;;;;9.93;4.63;;;;;;;37.09;29.67;97973.41;4954710;28;20105;-69
2023/06/05 07:25:39;;;;;;;12.52;7.45;;;;;;;37.20;30.57;97975.03;4975460;28;20133;-68
2023/06/05 07:28:13;;;;;;;14.65;5.05;;;;;;;37.27;28.24;97974.28;4971759;28;20043;-64
2023/06/05 07:30:45;;;;;;;13.32;5.40;;;;;;;37.53;30.93;97965.75;4965624;28;20379;-63
2023/06/05 07:33:14;;;;;;;10.88;4.60;;;;;;;37.48;29.14;97976.38;4947545;28;20046;-62
2023/06/05 07:35:59;;;;;;;12.18;4.75;;;;;;;37.70;29.20;97978.09;4966512;28;20046;-65
2023/06/05 07:38:29;;;;;;;7.70;4.05;;;;;;;37.41;28.80;97973.56;4964842;28;20113;-63
2023/06/05 07:41:01;;;;;;;7.72;3.80;;;;;;;37.51;31.25;97970.06;4969438;28;20054;-65
2023/06/05 07:43:31;;;;;;;12.50;3.75;;;;;;;37.53;29.10;97968.50;4969089;28;20051;-63
2023/06/05 07:46:00;;;;;;;9.25;3.35;;;;;;;37.34;26.67;97961.31;4969298;28;20074;-65
2023/06/05 07:48:30;;;;;;;9.52;2.90;;;;;;;37.25;27.97;97962.84;4960787;28;20070;-64
2023/06/05 07:50:59;;;;;;;8.88;4.65;;;;;;;37.18;30.06;97957.25;4969387;28;20041;-64
2023/06/05 07:53:29;;;;;;;6.70;4.22;;;;;;;37.14;27.91;97948.16;4968778;28;20062;-65
2023/06/05 07:56:00;;;;;;;11.80;6.40;;;;;;;37.15;30.67;97952.50;4969832;28;20348;-64
2023/06/05 07:58:30;;;;;;;16.08;8.02;;;;;;;37.17;32.42;97948.19;4957820;28;20142;-63
2023/06/05 08:00:59;;;;;;;20.60;9.75;;;;;;;37.24;31.29;97941.91;4977603;28;20061;-64
2023/06/05 08:03:29;;;;;;;14.40;7.75;;;;;;;37.21;29.72;97937.16;4974292;28;20046;-64
2023/06/05 08:05:59;;;;;;;13.52;5.88;;;;;;;37.25;29.73;97932.44;4962631;28;20070;-65
2023/06/05 08:08:29;;;;;;;9.00;4.93;;;;;;;37.12;31.13;97929.22;4972278;28;20640;-67
2023/06/05 08:10:59;;;;;;;15.52;4.30;;;;;;;36.97;31.21;97932.25;4969936;28;20487;-65
2023/06/05 08:13:29;;;;;;;12.60;4.90;;;;;;;36.99;31.78;97925.19;4968795;28;20058;-65
2023/06/05 08:15:58;;;;;;;8.10;4.22;;;;;;;36.76;31.55;97924.63;4969656;28;20050;-65
2023/06/05 08:18:28;;;;;;;14.25;4.28;;;;;;;36.75;33.42;97923.03;4968811;28;20050;-66
2023/06/05 08:20:57;;;;;;;13.85;4.05;;;;;;;36.75;31.91;97928.56;4959576;28;20109;-67
2023/06/05 08:23:26;;;;;;;10.43;3.80;;;;;;;36.65;30.99;97916.25;4968763;28;20057;-65
2023/06/05 08:25:56;;;;;;;8.05;3.85;;;;;;;36.62;33.28;97916.25;4975852;28;20042;-64
2023/06/05 08:28:25;;;;;;;11.80;4.28;;;;;;;36.67;32.28;97911.16;4972963;28;20068;-65
2023/06/05 08:30:56;;;;;;;11.55;4.50;;;;;;;36.75;32.67;97907.28;4968885;28;20046;-64
2023/06/05 08:33:27;;;;;;;11.23;4.40;;;;;;;36.64;31.88;97908.38;4965384;28;20117;-64
2023/06/05 08:35:56;;;;;;;10.18;4.35;;;;;;;36.73;31.97;97903.31;4968442;28;20047;-64
2023/06/05 08:38:26;;;;;;;9.98;4.22;;;;;;;36.47;31.17;97902.31;4967675;28;20043;-63
2023/06/05 08:41:01;;;;;;;12.70;3.80;;;;;;;36.55;31.52;97900.41;4967825;28;20125;-63
2023/06/05 08:43:31;;;;;;;8.18;3.80;;;;;;;36.60;32.30;97891.81;4967461;28;20181;-64
2023/06/05 08:46:00;;;;;;;9.90;3.72;;;;;;;36.35;32.37;97886.06;4976304;28;20422;-64
2023/06/05 08:48:35;;;;;;;7.38;3.55;;;;;;;36.42;33.05;97885.34;4959458;28;20042;-64
2023/06/05 08:51:10;;;;;;;8.77;4.38;;;;;;;36.63;30.63;97881.97;4965181;28;20133;-62
2023/06/05 08:53:45;;;;;;;7.45;4.20;;;;;;;36.67;31.43;97880.81;4917146;29;20046;-64
2023/06/05 08:56:15;;;;;;;11.88;4.15;;;;;;;36.74;31.54;97864.28;4944932;28;20446;-63
2023/06/05 08:58:46;;;;;;;15.32;4.85;;;;;;;36.80;32.30;97867.47;4949661;28;20065;-64
2023/06/05 09:01:17;;;;;;;;;;;;;;;36.93;30.85;97865.97;4957318;28;20043;-67
2023/06/05 09:03:47;;;;;;;8.98;3.78;;;;;;;37.00;30.74;97862.47;4948861;28;19922;-65
2023/06/05 09:06:16;;;;;;;11.32;4.07;;;;;;;36.84;30.14;97854.47;4949098;28;20079;-64
2023/06/05 09:08:45;;;;;;;11.40;4.03;;;;;;;36.28;29.61;97850.16;4964021;28;20570;-65
2023/06/05 09:11:27;;;;;;;9.95;4.55;;;;;;;36.17;29.29;97849.25;4947173;28;20043;-64
2023/06/05 09:13:59;;;;;;;13.93;6.60;;;;;;;36.12;30.45;97849.59;4945708;28;20051;-62
2023/06/05 09:16:43;;;;;;;16.50;6.30;;;;;;;35.94;31.03;97857.69;4946799;28;20062;-64
2023/06/05 09:19:13;;;;;;;12.30;6.20;;;;;;;35.85;31.32;97850.94;4945329;28;20047;-65
2023/06/05 09:21:54;;;;;;;14.73;6.68;;;;;;;35.90;31.23;97848.59;4948999;28;20066;-64
2023/06/05 09:24:26;;;;;;;10.25;4.00;;;;;;;35.95;31.48;97845.50;4944413;28;20047;-64
2023/06/05 09:27:01;;;;;;;8.95;3.75;;;;;;;35.99;30.84;97848.28;4951542;28;20051;-63
2023/06/05 09:29:36;;;;;;;9.77;3.88;;;;;;;36.16;31.43;97838.63;4958071;28;20131;-65
2023/06/05 09:32:20;;;;;;;10.10;3.35;;;;;;;36.30;29.99;97836.75;4955868;28;20066;-64
2023/06/05 09:35:05;;;;;;;10.10;3.28;;;;;;;36.30;29.40;97828.47;4947167;28;20114;-64
2023/06/05 09:37:37;;;;;;;6.97;2.85;;;;;;;36.37;28.88;97833.28;4948443;28;20051;-63
2023/06/05 09:40:08;;;;;;;8.57;3.78;;;;;;;36.45;30.96;97819.16;4953745;28;20039;-62
2023/06/05 09:42:39;;;;;;;12.73;4.00;;;;;;;36.52;29.47;97812.06;4956323;28;20047;-63
2023/06/05 09:45:08;;;;;;;10.18;3.95;;;;;;;36.43;28.59;97818.72;4957255;28;20288;-65
2023/06/05 09:47:38;;;;;;;13.73;4.07;;;;;;;36.38;28.30;97805.28;4958520;28;20053;-64
2023/06/05 09:50:22;;;;;;;;;;;;;;;36.34;29.40;97820.22;4956425;28;20074;-64
2023/06/05 09:52:55;;;;;;;14.57;4.60;;;;;;;36.35;30.92;97814.34;4972249;28;19922;-63
2023/06/05 09:55:28;;;;;;;10.23;4.13;;;;;;;36.27;29.60;97812.72;4975788;28;20054;-63
2023/06/05 09:58:00;;;;;;;9.25;3.90;;;;;;;36.22;29.50;97807.53;4960315;28;20051;-63
2023/06/05 10:00:30;;;;;;;9.98;3.70;;;;;;;36.02;30.43;97798.72;4980253;28;20388;-64
2023/06/05 10:03:02;;;;;;;16.90;4.30;;;;;;;35.92;30.19;97798.63;4975736;28;20549;-64
2023/06/05 10:05:35;;;;;;;9.10;3.58;;;;;;;35.96;29.71;97802.19;4978480;28;20070;-65
2023/06/05 10:08:05;;;;;;;;;;;;;;;35.94;30.23;97802.56;4976915;28;20569;-64
2023/06/05 10:10:36;;;;;;;9.00;3.40;;;;;;;35.91;29.90;97794.28;4966394;28;20602;-63
2023/06/05 10:13:06;;;;;;;10.32;3.60;;;;;;;35.94;30.07;97788.00;4966795;28;20182;-64
2023/06/05 10:15:38;;;;;;;10.13;4.40;;;;;;;36.12;30.46;97786.19;4958025;28;20531;-63
2023/06/05 10:18:10;;;;;;;15.18;4.30;;;;;;;36.30;29.34;97773.31;4978856;28;20042;-63
2023/06/05 10:20:40;;;;;;;6.50;3.58;;;;;;;36.43;29.42;97766.31;4975069;28;20054;-62
2023/06/05 10:23:10;;;;;;;6.15;3.50;;;;;;;36.50;29.04;97762.81;4973968;28;20065;-63
2023/06/05 10:25:41;;;;;;;12.50;4.07;;;;;;;36.63;30.21;97764.09;4978193;28;20049;-63
2023/06/05 10:28:22;;;;;;;11.80;5.18;;;;;;;36.68;29.63;97758.19;4972555;28;20046;-65
2023/06/05 10:31:26;;;;;;;10.80;4.15;;;;;;;36.63;28.88;97760.53;4973224;28;20043;-64
2023/06/05 10:34:28;;;;;;;6.85;3.65;;;;;;;36.45;29.11;97755.69;4974735;28;20038;-63
2023/06/05 10:37:21;;;;;;;6.15;3.28;;;;;;;36.37;28.84;97754.06;4978650;28;20047;-64
2023/06/05 10:39:51;;;;;;;9.83;3.10;;;;;;;36.36;29.42;97754.44;4975652;28;20046;-64
2023/06/05 10:42:24;;;;;;;8.63;3.47;;;;;;;36.35;30.03;97741.81;4973450;28;20066;-63
2023/06/05 10:44:55;;;;;;;6.10;3.75;;;;;;;36.34;28.52;97731.97;4975040;28;20039;-64
2023/06/05 10:47:51;;;;;;;9.38;3.47;;;;;;;36.32;29.46;97739.84;4977337;28;20387;-64
2023/06/05 10:50:24;;;;;;;8.25;3.67;;;;;;;36.23;29.66;97745.72;4969881;28;20129;-64
2023/06/05 10:52:57;;;;;;;10.77;3.55;;;;;;;36.13;28.54;97740.09;4950770;28;20130;-64
2023/06/05 10:55:43;;;;;;;11.98;3.50;;;;;;;36.07;29.97;97742.41;4955330;28;20050;-64
2023/06/05 10:58:16;;;;;;;10.98;3.97;;;;;;;36.02;30.04;97735.31;4971901;28;20050;-64
2023/06/05 11:01:19;;;;;;;10.73;3.83;;;;;;;35.89;30.65;97736.75;4955728;28;20054;-64
2023/06/05 11:03:59;;;;;;;10.10;4.00;;;;;;;35.73;31.27;97735.44;4955364;28;20047;-65
2023/06/05 11:06:30;;;;;;;8.15;3.80;;;;;;;35.60;31.17;97726.66;4955993;28;20180;-64
2023/06/05 11:09:13;;;;;;;9.10;3.28;;;;;;;35.46;32.12;97735.59;4953995;28;20077;-63
2023/06/05 11:12:15;;;;;;;7.05;3.70;;;;;;;35.23;30.46;97728.69;4949268;28;20055;-64
2023/06/05 11:14:49;;;;;;;11.05;3.85;;;;;;;35.18;30.44;97729.81;4916274;28;20498;-63
2023/06/05 11:17:35;;;;;;;9.38;3.53;;;;;;;35.07;30.88;97732.41;4956647;28;20153;-64
2023/06/05 11:20:29;;;;;;;7.72;3.70;;;;;;;35.00;32.87;97734.31;4956230;28;20047;-63
2023/06/05 11:22:59;;;;;;;10.57;5.20;;;;;;;35.00;31.80;97732.34;4952860;28;20117;-64
2023/06/05 11:25:30;;;;;;;8.93;4.15;;;;;;;34.96;35.31;97730.72;4942986;28;20467;-63
2023/06/05 11:28:05;;;;;;;12.97;5.10;;;;;;;34.70;35.67;97732.38;4948848;28;20043;-62
2023/06/05 11:30:45;;;;;;;13.82;4.57;;;;;;;34.54;38.48;97728.22;4948546;28;20050;-63
2023/06/05 11:33:20;;;;;;;13.90;5.07;;;;;;;34.43;41.60;97730.03;4945508;28;20078;-64
2023/06/05 11:35:52;;;;;;;16.38;5.68;;;;;;;34.19;41.78;97734.03;4946553;28;20051;-64
2023/06/05 11:38:23;;;;;;;12.80;4.95;;;;;;;34.01;44.43;97727.44;4950277;28;20062;-64
2023/06/05 11:40:54;;;;;;;16.02;5.07;;;;;;;33.89;46.01;97730.41;4954078;28;20061;-64
2023/06/05 11:43:24;;;;;;;14.40;5.20;;;;;;;33.80;45.24;97739.69;4949666;28;20051;-64
2023/06/05 11:45:58;;;;;;;18.30;5.18;;;;;;;33.78;42.42;97735.72;4950009;28;20057;-64
2023/06/05 11:48:30;;;;;;;14.85;5.78;;;;;;;33.85;42.19;97741.34;4948230;28;20150;-64